Running Springs, CA (92382)

7:27 AM PDT on September 22, 2014 (GMT -0700)
Running Springs, CA | Change Station
CLOSE
Current Station
Personal Weather Station
Location: Running Springs, CA
Elevation: 6283 ft
Nearby Weather Stations

Elev 6283 ft 34.22 °N, 117.12 °W | Updated 13 minutes ago

Clear
Clear
58.7 °F
Feels Like 58.7 °F
N
1.0
Wind Variable Wind from East
Gusts 2.0 mph

Today
High -- | Low -- °F
--% Chance of Precip.
Yesterday
High -- | Low -- °F
Precip. -- in
6:36 AM 6:45 PM
Waning Crescent, 3% visible
Pressure 30.29 in
Visibility 10.0 miles
Clouds Clear
Dew Point 40 °F
Humidity 49%
Rainfall 0.00 in
Snow Depth 0 in , 1 in , 1 in
UV 0.0 out of 12
Pollen 6.60 out of 12
Ozone Good
PM2.5 Good
Flu Activity Not available.
METAR KL35 221415Z AUTO 00000KT 10SM CLR 02/00 A3029 RMK AO2

More Conditions Fewer Conditions

Pressure 30.29 in
Visibility 10.0 miles
Clouds Clear
Dew Point 40 °F
Humidity 49%
Rainfall 0.00 in
Snow Depth 0 in , 1 in , 1 in
UV 0.0 out of 12
Pollen 6.60 out of 12
Ozone Good
PM2.5 Good
Flu Activity Not available.
METAR KL35 221415Z AUTO 00000KT 10SM CLR 02/00 A3029 RMK AO2

More Conditions Fewer Conditions

10-Day Weather Forecast

Almanac

Astronomy

Sep. 22, 2014 Rise Set
Actual Time 6:36 AM PDT 6:45 PM PDT
Civil Twilight 6:11 AM PDT 7:10 PM PDT
Nautical Twilight 5:42 AM PDT 7:39 PM PDT
Astronomical Twilight 5:12 AM PDT 8:08 PM PDT
Moon 5:12 AM PDT 5:53 PM PDT
Length of Visible Light 12h 58m
Length of Day
12h 08m
Tomorrow will be 2m 6s shorter.
Waning Crescent, 3% of the Moon is Illuminated
Today
Waning Crescent
Sep 24
New
Oct 1
First Quarter
Oct 8
Full
Oct 15
Last Quarter

Today's Extremes

State Highs State Lows

Community

WunderPhotos

Upload Photos

1,755,444 photos uploaded!

WunderBlogs® & News

By Dr. Jeff Masters
Director of Meteorology, Weather Underground
By Kari Strenfel
Meteorologist, Weather Underground
By Christopher C. Burt
Weather Historian, Weather Underground
September 22, 2014
September 22, 2014
September 22, 2014

Nearby

Air Quality

  Air Quality AQ Index Pollutant
Yesterday Moderate
OZONE
Yesterday Good
PM2.5
Current Good
OZONE
Current Good
PM2.5
Monday Moderate
OZONE
Monday Good
PM10
Monday Good
CO
Monday Good
NO2

Snow Depth

Station Depth Elevation
Ebbetts Pass 0 in 8700 ft
Echo Peak 1 in 7800 ft
Leavitt Lake 1 in 9400 ft
Fallen Leaf 0 in 6300 ft
Sonora Pass 0 in 8800 ft

Earthquake Activity

City Distance Mag. Time & Date
Borrego Springs, California 82 miles 2.6 7:34 AM PDT
2014-09-21
Inyokern, California 134 miles 3.1 5:33 PM PDT
2014-09-19
Aguanga, California 54 miles 2.5 1:38 AM PDT
2014-09-19
Minimum magnitude displayed is 2.5.

Coastal Water Temperatures

Place Temperature
No Stations Reporting

Nearby Weather Stations